sensor_id;sensor_type;location;lat;lon;timestamp;P1;durP1;ratioP1;P2;durP2;ratioP2
79019;SDS011;72857;44.740;37.770;2024-01-06T00:00:32;13.25;;;5.15;;
79019;SDS011;72857;44.740;37.770;2024-01-06T00:01:34;8.77;;;4.38;;
79019;SDS011;72857;44.740;37.770;2024-01-06T00:02:35;9.10;;;5.85;;
79019;SDS011;72857;44.740;37.770;2024-01-06T00:03:37;8.82;;;4.55;;
79019;SDS011;72857;44.740;37.770;2024-01-06T00:04:38;13.18;;;10.15;;
79019;SDS011;72857;44.740;37.770;2024-01-06T00:05:40;13.05;;;9.32;;
79019;SDS011;72857;44.740;37.770;2024-01-06T00:06:41;8.88;;;5.30;;
79019;SDS011;72857;44.740;37.770;2024-01-06T00:07:43;9.48;;;5.32;;
79019;SDS011;72857;44.740;37.770;2024-01-06T00:08:44;11.55;;;5.97;;
79019;SDS011;72857;44.740;37.770;2024-01-06T00:09:46;10.82;;;5.90;;
79019;SDS011;72857;44.740;37.770;2024-01-06T00:10:47;9.93;;;5.07;;
79019;SDS011;72857;44.740;37.770;2024-01-06T00:11:49;10.15;;;5.25;;
79019;SDS011;72857;44.740;37.770;2024-01-06T00:12:50;13.18;;;6.40;;
79019;SDS011;72857;44.740;37.770;2024-01-06T00:13:52;10.90;;;4.90;;
79019;SDS011;72857;44.740;37.770;2024-01-06T00:14:54;11.18;;;6.68;;
79019;SDS011;72857;44.740;37.770;2024-01-06T00:15:55;12.73;;;6.35;;
79019;SDS011;72857;44.740;37.770;2024-01-06T00:16:57;13.93;;;6.20;;
79019;SDS011;72857;44.740;37.770;2024-01-06T00:17:58;12.30;;;5.70;;
79019;SDS011;72857;44.740;37.770;2024-01-06T00:19:00;12.90;;;5.60;;
79019;SDS011;72857;44.740;37.770;2024-01-06T00:20:02;14.35;;;6.70;;
79019;SDS011;72857;44.740;37.770;2024-01-06T00:21:04;11.65;;;6.05;;
79019;SDS011;72857;44.740;37.770;2024-01-06T00:22:06;14.38;;;7.07;;
79019;SDS011;72857;44.740;37.770;2024-01-06T00:23:07;10.52;;;6.10;;
79019;SDS011;72857;44.740;37.770;2024-01-06T00:24:09;12.65;;;5.93;;
79019;SDS011;72857;44.740;37.770;2024-01-06T00:25:10;15.25;;;6.45;;
79019;SDS011;72857;44.740;37.770;2024-01-06T00:26:12;10.65;;;5.75;;
79019;SDS011;72857;44.740;37.770;2024-01-06T00:27:13;10.88;;;5.68;;
79019;SDS011;72857;44.740;37.770;2024-01-06T00:28:16;11.63;;;4.82;;
79019;SDS011;72857;44.740;37.770;2024-01-06T00:29:17;10.63;;;4.78;;
79019;SDS011;72857;44.740;37.770;2024-01-06T00:30:19;10.57;;;4.90;;
79019;SDS011;72857;44.740;37.770;2024-01-06T00:31:20;9.80;;;5.25;;
79019;SDS011;72857;44.740;37.770;2024-01-06T00:32:22;9.70;;;4.70;;
79019;SDS011;72857;44.740;37.770;2024-01-06T00:33:23;13.15;;;5.05;;
79019;SDS011;72857;44.740;37.770;2024-01-06T00:34:25;13.15;;;5.70;;
79019;SDS011;72857;44.740;37.770;2024-01-06T00:35:26;9.75;;;6.07;;
79019;SDS011;72857;44.740;37.770;2024-01-06T00:36:28;12.98;;;6.60;;
79019;SDS011;72857;44.740;37.770;2024-01-06T00:37:29;12.43;;;6.85;;
79019;SDS011;72857;44.740;37.770;2024-01-06T00:38:31;13.70;;;8.10;;
79019;SDS011;72857;44.740;37.770;2024-01-06T00:39:32;14.77;;;7.03;;
79019;SDS011;72857;44.740;37.770;2024-01-06T00:40:34;11.15;;;6.32;;
79019;SDS011;72857;44.740;37.770;2024-01-06T00:41:35;11.38;;;5.95;;
79019;SDS011;72857;44.740;37.770;2024-01-06T00:42:37;11.77;;;5.80;;
79019;SDS011;72857;44.740;37.770;2024-01-06T00:43:38;10.88;;;5.95;;
79019;SDS011;72857;44.740;37.770;2024-01-06T00:44:40;13.63;;;6.40;;
79019;SDS011;72857;44.740;37.770;2024-01-06T00:45:41;14.05;;;6.00;;
79019;SDS011;72857;44.740;37.770;2024-01-06T00:46:43;12.13;;;6.90;;
79019;SDS011;72857;44.740;37.770;2024-01-06T00:47:44;14.02;;;6.63;;
79019;SDS011;72857;44.740;37.770;2024-01-06T00:48:46;15.38;;;6.65;;
79019;SDS011;72857;44.740;37.770;2024-01-06T00:49:47;14.27;;;6.68;;
79019;SDS011;72857;44.740;37.770;2024-01-06T00:50:49;12.88;;;6.30;;
79019;SDS011;72857;44.740;37.770;2024-01-06T00:51:51;13.75;;;6.20;;
79019;SDS011;72857;44.740;37.770;2024-01-06T00:52:52;13.25;;;6.57;;
79019;SDS011;72857;44.740;37.770;2024-01-06T00:53:54;13.55;;;6.97;;
79019;SDS011;72857;44.740;37.770;2024-01-06T00:54:56;12.30;;;6.97;;
79019;SDS011;72857;44.740;37.770;2024-01-06T00:55:58;17.10;;;7.20;;
79019;SDS011;72857;44.740;37.770;2024-01-06T00:56:59;15.10;;;8.55;;
79019;SDS011;72857;44.740;37.770;2024-01-06T00:58:01;13.77;;;8.77;;
79019;SDS011;72857;44.740;37.770;2024-01-06T00:59:02;16.70;;;7.75;;
79019;SDS011;72857;44.740;37.770;2024-01-06T01:00:05;13.43;;;8.32;;
79019;SDS011;72857;44.740;37.770;2024-01-06T01:01:07;18.10;;;7.90;;
79019;SDS011;72857;44.740;37.770;2024-01-06T01:02:08;18.20;;;8.05;;
79019;SDS011;72857;44.740;37.770;2024-01-06T01:03:10;19.20;;;8.50;;
79019;SDS011;72857;44.740;37.770;2024-01-06T01:04:11;14.43;;;8.10;;
79019;SDS011;72857;44.740;37.770;2024-01-06T01:05:13;13.18;;;6.97;;
79019;SDS011;72857;44.740;37.770;2024-01-06T01:06:14;17.10;;;7.65;;
79019;SDS011;72857;44.740;37.770;2024-01-06T01:07:16;19.08;;;7.93;;
79019;SDS011;72857;44.740;37.770;2024-01-06T01:08:17;11.82;;;6.65;;
79019;SDS011;72857;44.740;37.770;2024-01-06T01:09:19;14.75;;;6.97;;
79019;SDS011;72857;44.740;37.770;2024-01-06T01:10:21;14.70;;;8.55;;
79019;SDS011;72857;44.740;37.770;2024-01-06T01:11:22;14.82;;;7.57;;
79019;SDS011;72857;44.740;37.770;2024-01-06T01:12:24;14.40;;;7.38;;
79019;SDS011;72857;44.740;37.770;2024-01-06T01:13:25;19.15;;;9.48;;
79019;SDS011;72857;44.740;37.770;2024-01-06T01:14:27;12.65;;;7.90;;
79019;SDS011;72857;44.740;37.770;2024-01-06T01:15:28;15.88;;;8.18;;
79019;SDS011;72857;44.740;37.770;2024-01-06T01:16:30;15.93;;;8.73;;
79019;SDS011;72857;44.740;37.770;2024-01-06T01:17:33;12.18;;;6.63;;
79019;SDS011;72857;44.740;37.770;2024-01-06T01:18:34;12.32;;;6.55;;
79019;SDS011;72857;44.740;37.770;2024-01-06T01:19:36;14.00;;;7.25;;
79019;SDS011;72857;44.740;37.770;2024-01-06T01:20:37;12.15;;;6.85;;
79019;SDS011;72857;44.740;37.770;2024-01-06T01:21:39;11.20;;;7.05;;
79019;SDS011;72857;44.740;37.770;2024-01-06T01:22:40;13.68;;;6.70;;
79019;SDS011;72857;44.740;37.770;2024-01-06T01:23:42;11.27;;;5.60;;
79019;SDS011;72857;44.740;37.770;2024-01-06T01:24:44;10.05;;;4.93;;
79019;SDS011;72857;44.740;37.770;2024-01-06T01:25:45;14.48;;;5.35;;
79019;SDS011;72857;44.740;37.770;2024-01-06T01:26:47;10.68;;;6.60;;
79019;SDS011;72857;44.740;37.770;2024-01-06T01:27:49;11.38;;;6.03;;
79019;SDS011;72857;44.740;37.770;2024-01-06T01:28:50;12.70;;;6.75;;
79019;SDS011;72857;44.740;37.770;2024-01-06T01:29:52;15.77;;;6.82;;
79019;SDS011;72857;44.740;37.770;2024-01-06T01:30:55;20.02;;;8.32;;
79019;SDS011;72857;44.740;37.770;2024-01-06T01:31:57;18.10;;;7.53;;
79019;SDS011;72857;44.740;37.770;2024-01-06T01:32:58;23.40;;;11.40;;
79019;SDS011;72857;44.740;37.770;2024-01-06T01:34:00;20.30;;;8.43;;
79019;SDS011;72857;44.740;37.770;2024-01-06T01:35:01;16.52;;;9.20;;
79019;SDS011;72857;44.740;37.770;2024-01-06T01:36:04;22.70;;;9.82;;
79019;SDS011;72857;44.740;37.770;2024-01-06T01:37:05;17.98;;;8.55;;
79019;SDS011;72857;44.740;37.770;2024-01-06T01:38:07;15.27;;;8.00;;
79019;SDS011;72857;44.740;37.770;2024-01-06T01:39:08;18.70;;;8.60;;
79019;SDS011;72857;44.740;37.770;2024-01-06T01:40:10;13.15;;;6.75;;
79019;SDS011;72857;44.740;37.770;2024-01-06T01:41:12;19.35;;;8.50;;
79019;SDS011;72857;44.740;37.770;2024-01-06T01:42:13;18.02;;;8.32;;
79019;SDS011;72857;44.740;37.770;2024-01-06T01:43:15;19.40;;;7.72;;
79019;SDS011;72857;44.740;37.770;2024-01-06T01:44:19;17.23;;;8.00;;
79019;SDS011;72857;44.740;37.770;2024-01-06T01:45:21;17.33;;;8.63;;
79019;SDS011;72857;44.740;37.770;2024-01-06T01:46:22;19.00;;;9.02;;
79019;SDS011;72857;44.740;37.770;2024-01-06T01:47:27;18.17;;;8.30;;
79019;SDS011;72857;44.740;37.770;2024-01-06T01:48:28;17.95;;;8.65;;
79019;SDS011;72857;44.740;37.770;2024-01-06T01:49:30;15.90;;;8.10;;
79019;SDS011;72857;44.740;37.770;2024-01-06T01:50:33;18.48;;;7.03;;
79019;SDS011;72857;44.740;37.770;2024-01-06T01:51:35;17.90;;;7.68;;
79019;SDS011;72857;44.740;37.770;2024-01-06T01:52:37;15.40;;;6.85;;
79019;SDS011;72857;44.740;37.770;2024-01-06T01:53:40;17.15;;;7.72;;
79019;SDS011;72857;44.740;37.770;2024-01-06T01:54:42;11.85;;;6.75;;
79019;SDS011;72857;44.740;37.770;2024-01-06T01:55:45;13.98;;;6.07;;
79019;SDS011;72857;44.740;37.770;2024-01-06T01:56:48;12.93;;;6.25;;
79019;SDS011;72857;44.740;37.770;2024-01-06T01:57:49;13.38;;;6.32;;
79019;SDS011;72857;44.740;37.770;2024-01-06T01:58:51;13.48;;;6.28;;
79019;SDS011;72857;44.740;37.770;2024-01-06T01:59:53;13.73;;;6.15;;
79019;SDS011;72857;44.740;37.770;2024-01-06T02:00:56;13.32;;;6.30;;
79019;SDS011;72857;44.740;37.770;2024-01-06T02:01:57;17.27;;;8.15;;
79019;SDS011;72857;44.740;37.770;2024-01-06T02:02:59;16.25;;;8.10;;
79019;SDS011;72857;44.740;37.770;2024-01-06T02:04:02;17.10;;;7.47;;
79019;SDS011;72857;44.740;37.770;2024-01-06T02:05:04;14.25;;;7.45;;
79019;SDS011;72857;44.740;37.770;2024-01-06T02:06:05;14.90;;;7.78;;
79019;SDS011;72857;44.740;37.770;2024-01-06T02:07:07;16.40;;;7.53;;
79019;SDS011;72857;44.740;37.770;2024-01-06T02:08:08;19.63;;;8.02;;
79019;SDS011;72857;44.740;37.770;2024-01-06T02:09:10;14.07;;;6.25;;
79019;SDS011;72857;44.740;37.770;2024-01-06T02:10:12;20.48;;;7.18;;
79019;SDS011;72857;44.740;37.770;2024-01-06T02:11:13;20.27;;;8.30;;
79019;SDS011;72857;44.740;37.770;2024-01-06T02:12:15;16.75;;;7.28;;
79019;SDS011;72857;44.740;37.770;2024-01-06T02:13:16;22.92;;;8.38;;
79019;SDS011;72857;44.740;37.770;2024-01-06T02:14:18;16.50;;;6.90;;
79019;SDS011;72857;44.740;37.770;2024-01-06T02:15:19;15.15;;;7.22;;
79019;SDS011;72857;44.740;37.770;2024-01-06T02:16:21;18.63;;;8.48;;
79019;SDS011;72857;44.740;37.770;2024-01-06T02:17:22;15.85;;;8.65;;
79019;SDS011;72857;44.740;37.770;2024-01-06T02:18:24;17.83;;;8.63;;
79019;SDS011;72857;44.740;37.770;2024-01-06T02:19:25;11.60;;;6.57;;
79019;SDS011;72857;44.740;37.770;2024-01-06T02:20:27;17.00;;;7.25;;
79019;SDS011;72857;44.740;37.770;2024-01-06T02:22:32;15.95;;;8.00;;
79019;SDS011;72857;44.740;37.770;2024-01-06T02:23:36;16.77;;;7.50;;
79019;SDS011;72857;44.740;37.770;2024-01-06T02:24:38;14.75;;;6.97;;
79019;SDS011;72857;44.740;37.770;2024-01-06T02:25:39;18.42;;;7.88;;
79019;SDS011;72857;44.740;37.770;2024-01-06T02:26:40;16.10;;;8.68;;
79019;SDS011;72857;44.740;37.770;2024-01-06T02:27:42;20.42;;;9.35;;
79019;SDS011;72857;44.740;37.770;2024-01-06T02:28:44;18.60;;;8.07;;
79019;SDS011;72857;44.740;37.770;2024-01-06T02:29:48;15.77;;;9.00;;
79019;SDS011;72857;44.740;37.770;2024-01-06T02:30:50;16.05;;;7.90;;
79019;SDS011;72857;44.740;37.770;2024-01-06T02:31:52;15.18;;;8.55;;
79019;SDS011;72857;44.740;37.770;2024-01-06T02:32:53;21.55;;;8.93;;
79019;SDS011;72857;44.740;37.770;2024-01-06T02:33:55;13.30;;;8.30;;
79019;SDS011;72857;44.740;37.770;2024-01-06T02:34:56;14.27;;;7.85;;
79019;SDS011;72857;44.740;37.770;2024-01-06T02:35:58;18.00;;;9.05;;
79019;SDS011;72857;44.740;37.770;2024-01-06T02:36:59;17.10;;;8.82;;
79019;SDS011;72857;44.740;37.770;2024-01-06T02:38:01;17.02;;;9.15;;
79019;SDS011;72857;44.740;37.770;2024-01-06T02:39:02;15.27;;;9.05;;
79019;SDS011;72857;44.740;37.770;2024-01-06T02:40:04;16.10;;;8.80;;
79019;SDS011;72857;44.740;37.770;2024-01-06T02:41:06;16.38;;;8.02;;
79019;SDS011;72857;44.740;37.770;2024-01-06T02:42:07;15.43;;;8.15;;
79019;SDS011;72857;44.740;37.770;2024-01-06T02:43:09;18.38;;;8.32;;
79019;SDS011;72857;44.740;37.770;2024-01-06T02:44:11;19.63;;;9.98;;
79019;SDS011;72857;44.740;37.770;2024-01-06T02:45:14;21.35;;;9.23;;
79019;SDS011;72857;44.740;37.770;2024-01-06T02:46:16;20.05;;;10.88;;
79019;SDS011;72857;44.740;37.770;2024-01-06T02:47:17;18.10;;;9.25;;
79019;SDS011;72857;44.740;37.770;2024-01-06T02:48:19;21.45;;;10.18;;
79019;SDS011;72857;44.740;37.770;2024-01-06T02:49:21;22.08;;;8.93;;
79019;SDS011;72857;44.740;37.770;2024-01-06T02:50:22;26.17;;;9.68;;
79019;SDS011;72857;44.740;37.770;2024-01-06T02:51:23;23.75;;;9.93;;
79019;SDS011;72857;44.740;37.770;2024-01-06T02:52:25;27.42;;;11.57;;
79019;SDS011;72857;44.740;37.770;2024-01-06T02:53:26;35.97;;;14.27;;
79019;SDS011;72857;44.740;37.770;2024-01-06T02:54:28;22.15;;;11.32;;
79019;SDS011;72857;44.740;37.770;2024-01-06T02:55:29;26.27;;;11.20;;
79019;SDS011;72857;44.740;37.770;2024-01-06T02:56:31;24.27;;;10.90;;
79019;SDS011;72857;44.740;37.770;2024-01-06T02:57:32;24.98;;;10.20;;
79019;SDS011;72857;44.740;37.770;2024-01-06T02:58:34;21.92;;;11.98;;
79019;SDS011;72857;44.740;37.770;2024-01-06T02:59:35;22.65;;;11.23;;
79019;SDS011;72857;44.740;37.770;2024-01-06T03:00:37;19.85;;;9.98;;
79019;SDS011;72857;44.740;37.770;2024-01-06T03:01:38;26.08;;;10.35;;
79019;SDS011;72857;44.740;37.770;2024-01-06T03:02:40;27.92;;;10.50;;
79019;SDS011;72857;44.740;37.770;2024-01-06T03:03:43;26.65;;;9.23;;
79019;SDS011;72857;44.740;37.770;2024-01-06T03:04:45;21.83;;;10.73;;
79019;SDS011;72857;44.740;37.770;2024-01-06T03:05:46;23.02;;;10.15;;
79019;SDS011;72857;44.740;37.770;2024-01-06T03:06:49;18.55;;;10.40;;
79019;SDS011;72857;44.740;37.770;2024-01-06T03:07:54;21.83;;;10.18;;
79019;SDS011;72857;44.740;37.770;2024-01-06T03:08:56;20.75;;;9.02;;
79019;SDS011;72857;44.740;37.770;2024-01-06T03:09:57;20.70;;;8.85;;
79019;SDS011;72857;44.740;37.770;2024-01-06T03:10:59;21.23;;;9.32;;
79019;SDS011;72857;44.740;37.770;2024-01-06T03:12:00;18.50;;;6.95;;
79019;SDS011;72857;44.740;37.770;2024-01-06T03:13:02;17.02;;;8.35;;
79019;SDS011;72857;44.740;37.770;2024-01-06T03:14:04;18.92;;;7.72;;
79019;SDS011;72857;44.740;37.770;2024-01-06T03:15:05;13.80;;;7.72;;
79019;SDS011;72857;44.740;37.770;2024-01-06T03:16:07;14.27;;;7.50;;
79019;SDS011;72857;44.740;37.770;2024-01-06T03:17:09;23.38;;;8.07;;
79019;SDS011;72857;44.740;37.770;2024-01-06T03:18:13;27.10;;;8.55;;
79019;SDS011;72857;44.740;37.770;2024-01-06T03:19:15;15.68;;;7.63;;
79019;SDS011;72857;44.740;37.770;2024-01-06T03:20:16;15.13;;;6.72;;
79019;SDS011;72857;44.740;37.770;2024-01-06T03:21:18;15.57;;;7.47;;
79019;SDS011;72857;44.740;37.770;2024-01-06T03:22:20;18.70;;;7.05;;
79019;SDS011;72857;44.740;37.770;2024-01-06T03:23:22;16.42;;;7.80;;
79019;SDS011;72857;44.740;37.770;2024-01-06T03:24:24;10.82;;;7.00;;
79019;SDS011;72857;44.740;37.770;2024-01-06T03:25:26;23.95;;;8.50;;
79019;SDS011;72857;44.740;37.770;2024-01-06T03:26:28;19.35;;;8.90;;
79019;SDS011;72857;44.740;37.770;2024-01-06T03:27:30;19.38;;;8.98;;
79019;SDS011;72857;44.740;37.770;2024-01-06T03:28:31;23.42;;;9.65;;
79019;SDS011;72857;44.740;37.770;2024-01-06T03:29:33;14.85;;;8.07;;
79019;SDS011;72857;44.740;37.770;2024-01-06T03:30:34;16.73;;;7.55;;
79019;SDS011;72857;44.740;37.770;2024-01-06T03:31:36;16.38;;;8.50;;
79019;SDS011;72857;44.740;37.770;2024-01-06T03:32:37;12.93;;;7.10;;
79019;SDS011;72857;44.740;37.770;2024-01-06T03:33:38;19.88;;;6.88;;
79019;SDS011;72857;44.740;37.770;2024-01-06T03:34:40;16.23;;;7.80;;
79019;SDS011;72857;44.740;37.770;2024-01-06T03:35:42;18.10;;;7.53;;
79019;SDS011;72857;44.740;37.770;2024-01-06T03:36:43;12.60;;;6.05;;
79019;SDS011;72857;44.740;37.770;2024-01-06T03:37:45;16.40;;;6.43;;
79019;SDS011;72857;44.740;37.770;2024-01-06T03:38:46;11.88;;;6.88;;
79019;SDS011;72857;44.740;37.770;2024-01-06T03:39:48;14.60;;;7.68;;
79019;SDS011;72857;44.740;37.770;2024-01-06T03:40:49;12.52;;;6.45;;
79019;SDS011;72857;44.740;37.770;2024-01-06T03:41:51;13.27;;;7.55;;
79019;SDS011;72857;44.740;37.770;2024-01-06T03:42:52;13.38;;;6.78;;
79019;SDS011;72857;44.740;37.770;2024-01-06T03:43:54;16.98;;;7.40;;
79019;SDS011;72857;44.740;37.770;2024-01-06T03:44:56;11.27;;;5.90;;
79019;SDS011;72857;44.740;37.770;2024-01-06T03:45:57;13.55;;;6.40;;
79019;SDS011;72857;44.740;37.770;2024-01-06T03:47:00;10.55;;;5.90;;
79019;SDS011;72857;44.740;37.770;2024-01-06T03:48:02;13.32;;;6.82;;
79019;SDS011;72857;44.740;37.770;2024-01-06T03:49:03;13.82;;;5.97;;
79019;SDS011;72857;44.740;37.770;2024-01-06T03:50:05;11.80;;;6.28;;
79019;SDS011;72857;44.740;37.770;2024-01-06T03:51:07;14.88;;;7.00;;
79019;SDS011;72857;44.740;37.770;2024-01-06T03:52:08;16.05;;;6.90;;
79019;SDS011;72857;44.740;37.770;2024-01-06T03:53:10;16.88;;;6.50;;
79019;SDS011;72857;44.740;37.770;2024-01-06T03:55:38;15.38;;;9.05;;
79019;SDS011;72857;44.740;37.770;2024-01-06T03:56:39;15.77;;;7.05;;
79019;SDS011;72857;44.740;37.770;2024-01-06T03:57:40;16.38;;;6.65;;
79019;SDS011;72857;44.740;37.770;2024-01-06T03:58:42;15.88;;;7.15;;
79019;SDS011;72857;44.740;37.770;2024-01-06T03:59:43;16.17;;;7.35;;
79019;SDS011;72857;44.740;37.770;2024-01-06T04:00:45;16.27;;;8.00;;
79019;SDS011;72857;44.740;37.770;2024-01-06T04:01:46;17.77;;;7.20;;
79019;SDS011;72857;44.740;37.770;2024-01-06T04:02:47;17.70;;;7.93;;
79019;SDS011;72857;44.740;37.770;2024-01-06T04:03:49;18.83;;;8.75;;
79019;SDS011;72857;44.740;37.770;2024-01-06T04:04:50;21.95;;;8.82;;
79019;SDS011;72857;44.740;37.770;2024-01-06T04:05:52;15.75;;;8.10;;
79019;SDS011;72857;44.740;37.770;2024-01-06T04:06:53;18.25;;;7.75;;
79019;SDS011;72857;44.740;37.770;2024-01-06T04:07:55;16.20;;;8.18;;
79019;SDS011;72857;44.740;37.770;2024-01-06T04:08:56;19.90;;;8.70;;
79019;SDS011;72857;44.740;37.770;2024-01-06T04:09:58;20.75;;;8.45;;
79019;SDS011;72857;44.740;37.770;2024-01-06T04:11:00;17.98;;;9.07;;
79019;SDS011;72857;44.740;37.770;2024-01-06T04:12:02;15.52;;;8.32;;
79019;SDS011;72857;44.740;37.770;2024-01-06T04:13:04;15.40;;;7.55;;
79019;SDS011;72857;44.740;37.770;2024-01-06T04:14:05;19.08;;;8.98;;
79019;SDS011;72857;44.740;37.770;2024-01-06T04:15:07;19.08;;;9.65;;
79019;SDS011;72857;44.740;37.770;2024-01-06T04:16:09;17.70;;;10.10;;
79019;SDS011;72857;44.740;37.770;2024-01-06T04:17:10;22.02;;;9.63;;
79019;SDS011;72857;44.740;37.770;2024-01-06T04:18:11;20.20;;;9.80;;
79019;SDS011;72857;44.740;37.770;2024-01-06T04:19:13;23.70;;;10.93;;
79019;SDS011;72857;44.740;37.770;2024-01-06T04:20:16;23.95;;;12.18;;
79019;SDS011;72857;44.740;37.770;2024-01-06T04:21:17;26.17;;;13.05;;
79019;SDS011;72857;44.740;37.770;2024-01-06T04:22:18;33.53;;;16.02;;
79019;SDS011;72857;44.740;37.770;2024-01-06T04:23:20;36.60;;;16.27;;
79019;SDS011;72857;44.740;37.770;2024-01-06T04:24:21;31.38;;;15.82;;
79019;SDS011;72857;44.740;37.770;2024-01-06T04:25:23;31.85;;;15.55;;
79019;SDS011;72857;44.740;37.770;2024-01-06T04:26:25;31.02;;;13.95;;
79019;SDS011;72857;44.740;37.770;2024-01-06T04:27:26;32.45;;;15.95;;
79019;SDS011;72857;44.740;37.770;2024-01-06T04:28:28;34.83;;;15.15;;
79019;SDS011;72857;44.740;37.770;2024-01-06T04:29:30;34.33;;;16.92;;
79019;SDS011;72857;44.740;37.770;2024-01-06T04:30:31;28.35;;;15.65;;
79019;SDS011;72857;44.740;37.770;2024-01-06T04:31:33;33.22;;;17.38;;
79019;SDS011;72857;44.740;37.770;2024-01-06T04:32:35;31.98;;;16.25;;
79019;SDS011;72857;44.740;37.770;2024-01-06T04:33:36;33.00;;;17.08;;
79019;SDS011;72857;44.740;37.770;2024-01-06T04:34:39;40.08;;;17.23;;
79019;SDS011;72857;44.740;37.770;2024-01-06T04:35:40;29.00;;;14.38;;
79019;SDS011;72857;44.740;37.770;2024-01-06T04:36:42;39.03;;;18.85;;
79019;SDS011;72857;44.740;37.770;2024-01-06T04:37:44;28.60;;;14.18;;
79019;SDS011;72857;44.740;37.770;2024-01-06T04:38:46;29.20;;;12.88;;
79019;SDS011;72857;44.740;37.770;2024-01-06T04:39:47;24.65;;;13.38;;
79019;SDS011;72857;44.740;37.770;2024-01-06T04:40:49;29.27;;;12.80;;
79019;SDS011;72857;44.740;37.770;2024-01-06T04:41:51;22.75;;;11.75;;
79019;SDS011;72857;44.740;37.770;2024-01-06T04:42:52;28.15;;;12.35;;
79019;SDS011;72857;44.740;37.770;2024-01-06T04:43:54;19.30;;;7.80;;
79019;SDS011;72857;44.740;37.770;2024-01-06T04:44:56;14.15;;;6.80;;
79019;SDS011;72857;44.740;37.770;2024-01-06T04:45:58;17.33;;;7.32;;
79019;SDS011;72857;44.740;37.770;2024-01-06T04:46:59;15.32;;;6.88;;
79019;SDS011;72857;44.740;37.770;2024-01-06T04:48:01;19.67;;;8.52;;
79019;SDS011;72857;44.740;37.770;2024-01-06T04:49:04;23.45;;;10.18;;
79019;SDS011;72857;44.740;37.770;2024-01-06T04:50:06;24.67;;;12.85;;
79019;SDS011;72857;44.740;37.770;2024-01-06T04:51:08;21.33;;;10.00;;
79019;SDS011;72857;44.740;37.770;2024-01-06T04:52:11;26.52;;;13.43;;
79019;SDS011;72857;44.740;37.770;2024-01-06T04:53:13;33.03;;;12.52;;
79019;SDS011;72857;44.740;37.770;2024-01-06T04:54:14;26.08;;;11.02;;
79019;SDS011;72857;44.740;37.770;2024-01-06T04:55:16;22.15;;;10.77;;
79019;SDS011;72857;44.740;37.770;2024-01-06T04:56:18;14.98;;;8.88;;
79019;SDS011;72857;44.740;37.770;2024-01-06T04:57:20;17.90;;;10.15;;
79019;SDS011;72857;44.740;37.770;2024-01-06T04:58:22;22.50;;;10.30;;
79019;SDS011;72857;44.740;37.770;2024-01-06T04:59:23;18.15;;;9.27;;
79019;SDS011;72857;44.740;37.770;2024-01-06T05:00:25;20.08;;;9.90;;
79019;SDS011;72857;44.740;37.770;2024-01-06T05:01:28;23.30;;;10.45;;
79019;SDS011;72857;44.740;37.770;2024-01-06T05:02:30;20.23;;;9.60;;
79019;SDS011;72857;44.740;37.770;2024-01-06T05:03:32;17.42;;;10.93;;
79019;SDS011;72857;44.740;37.770;2024-01-06T05:04:34;23.35;;;11.57;;
79019;SDS011;72857;44.740;37.770;2024-01-06T05:05:36;20.80;;;11.57;;
79019;SDS011;72857;44.740;37.770;2024-01-06T05:06:37;22.17;;;10.95;;
79019;SDS011;72857;44.740;37.770;2024-01-06T05:07:39;21.42;;;11.73;;
79019;SDS011;72857;44.740;37.770;2024-01-06T05:08:41;20.73;;;10.48;;
79019;SDS011;72857;44.740;37.770;2024-01-06T05:09:45;22.65;;;11.25;;
79019;SDS011;72857;44.740;37.770;2024-01-06T05:10:47;24.83;;;10.90;;
79019;SDS011;72857;44.740;37.770;2024-01-06T05:11:53;22.38;;;10.70;;
79019;SDS011;72857;44.740;37.770;2024-01-06T05:12:55;24.00;;;10.38;;
79019;SDS011;72857;44.740;37.770;2024-01-06T05:13:57;18.77;;;10.18;;
79019;SDS011;72857;44.740;37.770;2024-01-06T05:14:58;19.88;;;10.20;;
79019;SDS011;72857;44.740;37.770;2024-01-06T05:16:00;19.30;;;11.93;;
79019;SDS011;72857;44.740;37.770;2024-01-06T05:17:02;22.15;;;11.25;;
79019;SDS011;72857;44.740;37.770;2024-01-06T05:18:03;20.40;;;13.20;;
79019;SDS011;72857;44.740;37.770;2024-01-06T05:19:05;22.10;;;12.77;;
79019;SDS011;72857;44.740;37.770;2024-01-06T05:20:09;28.65;;;13.88;;
79019;SDS011;72857;44.740;37.770;2024-01-06T05:21:11;21.25;;;13.15;;
79019;SDS011;72857;44.740;37.770;2024-01-06T05:22:13;24.50;;;13.00;;
79019;SDS011;72857;44.740;37.770;2024-01-06T05:23:15;23.38;;;13.25;;
79019;SDS011;72857;44.740;37.770;2024-01-06T05:24:16;24.33;;;13.38;;
79019;SDS011;72857;44.740;37.770;2024-01-06T05:25:20;25.80;;;12.98;;
79019;SDS011;72857;44.740;37.770;2024-01-06T05:26:21;21.45;;;11.88;;
79019;SDS011;72857;44.740;37.770;2024-01-06T05:27:26;24.10;;;13.60;;
79019;SDS011;72857;44.740;37.770;2024-01-06T05:28:28;25.02;;;12.40;;
79019;SDS011;72857;44.740;37.770;2024-01-06T05:29:29;22.00;;;12.95;;
79019;SDS011;72857;44.740;37.770;2024-01-06T05:30:31;26.98;;;14.18;;
79019;SDS011;72857;44.740;37.770;2024-01-06T05:31:32;24.73;;;12.63;;
79019;SDS011;72857;44.740;37.770;2024-01-06T05:32:34;20.90;;;12.48;;
79019;SDS011;72857;44.740;37.770;2024-01-06T05:33:35;23.98;;;13.82;;
79019;SDS011;72857;44.740;37.770;2024-01-06T05:34:37;23.70;;;12.45;;
79019;SDS011;72857;44.740;37.770;2024-01-06T05:35:39;21.48;;;13.32;;
79019;SDS011;72857;44.740;37.770;2024-01-06T05:36:40;23.05;;;11.95;;
79019;SDS011;72857;44.740;37.770;2024-01-06T05:37:42;20.23;;;12.35;;
79019;SDS011;72857;44.740;37.770;2024-01-06T05:38:43;23.17;;;12.73;;
79019;SDS011;72857;44.740;37.770;2024-01-06T05:39:45;20.02;;;10.93;;
79019;SDS011;72857;44.740;37.770;2024-01-06T05:40:46;19.02;;;10.18;;
79019;SDS011;72857;44.740;37.770;2024-01-06T05:41:48;20.88;;;11.30;;
79019;SDS011;72857;44.740;37.770;2024-01-06T05:42:50;20.02;;;12.38;;
79019;SDS011;72857;44.740;37.770;2024-01-06T05:43:53;22.23;;;12.25;;
79019;SDS011;72857;44.740;37.770;2024-01-06T05:44:54;19.15;;;10.73;;
79019;SDS011;72857;44.740;37.770;2024-01-06T05:45:56;20.15;;;11.18;;
79019;SDS011;72857;44.740;37.770;2024-01-06T05:46:57;20.48;;;11.77;;
79019;SDS011;72857;44.740;37.770;2024-01-06T05:47:59;20.08;;;11.00;;
79019;SDS011;72857;44.740;37.770;2024-01-06T05:49:00;21.13;;;11.75;;
79019;SDS011;72857;44.740;37.770;2024-01-06T05:50:02;23.67;;;11.57;;
79019;SDS011;72857;44.740;37.770;2024-01-06T05:51:04;20.67;;;11.95;;
79019;SDS011;72857;44.740;37.770;2024-01-06T05:52:06;25.90;;;10.68;;
79019;SDS011;72857;44.740;37.770;2024-01-06T05:53:08;20.63;;;10.18;;
79019;SDS011;72857;44.740;37.770;2024-01-06T05:54:10;22.80;;;10.52;;
79019;SDS011;72857;44.740;37.770;2024-01-06T05:55:11;21.70;;;10.77;;
79019;SDS011;72857;44.740;37.770;2024-01-06T05:56:24;39.25;;;24.50;;
79019;SDS011;72857;44.740;37.770;2024-01-06T05:57:26;23.77;;;11.77;;
79019;SDS011;72857;44.740;37.770;2024-01-06T05:58:27;26.58;;;12.65;;
79019;SDS011;72857;44.740;37.770;2024-01-06T05:59:30;20.75;;;11.98;;
79019;SDS011;72857;44.740;37.770;2024-01-06T06:00:33;28.15;;;13.95;;
79019;SDS011;72857;44.740;37.770;2024-01-06T06:01:35;22.70;;;13.30;;
79019;SDS011;72857;44.740;37.770;2024-01-06T06:02:36;23.02;;;13.30;;